Time;durP1;ratioP1;P1;durP2;ratioP2;P2;SDS_P1;SDS_P2;PMS_P1;PMS_P2;Temp;Humidity;BMP_temperature;BMP_pressure;BME280_temperature;BME280_humidity;BME280_pressure;Samples;Min_cycle;Max_cycle;Signal;HPM_P1;HPM_P2
2021/05/24 00:01:03;;;;;;;6.57;1.60;;;;;;;11.12;80.54;100909.09;5110458;28;20047;-46
2021/05/24 00:03:30;;;;;;;5.05;1.67;;;;;;;11.12;80.36;100895.13;5111453;28;20122;-50
2021/05/24 00:05:58;;;;;;;3.58;1.48;;;;;;;11.14;80.08;100896.50;5110684;28;20501;-47
2021/05/24 00:08:27;;;;;;;4.32;1.75;;;;;;;11.15;79.94;100892.56;5111291;28;20093;-49
2021/05/24 00:10:54;;;;;;;4.88;1.77;;;;;;;11.15;79.85;100887.00;5110952;28;20074;-47
2021/05/24 00:13:22;;;;;;;3.55;1.90;;;;;;;11.17;79.77;100881.94;5109235;28;20146;-46
2021/05/24 00:15:51;;;;;;;4.22;1.48;;;;;;;11.18;79.74;100879.97;5110990;28;20497;-48
2021/05/24 00:18:19;;;;;;;3.63;1.63;;;;;;;11.13;80.14;100882.81;5111243;28;20051;-47
2021/05/24 00:20:50;;;;;;;4.15;2.10;;;;;;;11.09;80.20;100877.00;5110159;28;20055;-47
2021/05/24 00:23:18;;;;;;;5.65;2.10;;;;;;;11.04;80.42;100865.91;5111340;28;20054;-46
2021/05/24 00:25:47;;;;;;;5.90;2.20;;;;;;;11.03;80.32;100864.25;5110650;28;20067;-47
2021/05/24 00:28:14;;;;;;;4.50;1.75;;;;;;;11.02;80.58;100857.84;5109090;28;20082;-47
2021/05/24 00:30:44;;;;;;;4.05;2.00;;;;;;;11.02;80.59;100854.22;5110804;28;20617;-49
2021/05/24 00:33:12;;;;;;;5.50;2.50;;;;;;;11.00;80.74;100856.47;5112554;28;20039;-47
2021/05/24 00:35:40;;;;;;;5.82;2.22;;;;;;;11.00;80.59;100860.09;5114436;28;20043;-45
2021/05/24 00:38:08;;;;;;;6.38;2.50;;;;;;;11.00;80.83;100867.66;5112760;28;20078;-46
2021/05/24 00:40:36;;;;;;;5.65;2.30;;;;;;;10.96;81.25;100858.22;5114651;28;20039;-46
2021/05/24 00:43:06;;;;;;;4.30;2.10;;;;;;;10.96;81.32;100870.22;5114345;28;20048;-47
2021/05/24 00:45:34;;;;;;;4.13;2.00;;;;;;;10.95;81.48;100859.38;5114626;28;20135;-46
2021/05/24 00:48:03;;;;;;;2.75;1.88;;;;;;;10.96;81.62;100855.44;5114336;28;20428;-46
2021/05/24 00:50:31;;;;;;;4.93;2.58;;;;;;;10.93;81.75;100848.50;5114131;28;20044;-44
2021/05/24 00:52:58;;;;;;;5.30;2.50;;;;;;;10.89;82.16;100844.66;5114195;28;20079;-44
2021/05/24 00:55:25;;;;;;;4.70;2.20;;;;;;;10.87;82.49;100835.72;5113715;28;20073;-46
2021/05/24 00:57:53;;;;;;;7.20;2.40;;;;;;;10.83;82.90;100839.44;5114575;28;20096;-45
2021/05/24 01:00:29;;;;;;;4.50;2.30;;;;;;;10.82;82.79;100832.19;5114120;28;20496;-45
2021/05/24 01:02:58;;;;;;;6.28;2.35;;;;;;;10.78;82.71;100820.81;5105848;28;20051;-46
2021/05/24 01:05:26;;;;;;;4.20;2.15;;;;;;;10.79;83.08;100822.44;5114104;28;20076;-46
2021/05/24 01:07:53;;;;;;;5.30;2.40;;;;;;;10.78;83.12;100808.81;5114639;28;20432;-45
2021/05/24 01:10:21;;;;;;;3.92;2.33;;;;;;;10.76;83.24;100811.91;5113525;28;20047;-48
2021/05/24 01:12:49;;;;;;;3.72;2.15;;;;;;;10.77;83.27;100808.00;5114204;28;20487;-47
2021/05/24 01:15:20;;;;;;;4.32;2.55;;;;;;;10.78;83.17;100801.28;5114251;28;20550;-45
2021/05/24 01:17:48;;;;;;;4.95;2.05;;;;;;;10.79;83.20;100796.53;5113296;28;20097;-47
2021/05/24 01:20:16;;;;;;;4.40;2.30;;;;;;;10.79;83.34;100794.53;5114001;28;20055;-45
2021/05/24 01:22:57;;;;;;;5.13;2.55;;;;;;;10.80;83.23;100789.78;5113985;28;20043;-44
2021/05/24 01:25:25;;;;;;;4.10;2.08;;;;;;;10.78;83.20;100787.31;5103638;28;20458;-45
2021/05/24 01:27:52;;;;;;;4.03;1.92;;;;;;;10.81;83.13;100788.66;5113696;28;20071;-44
2021/05/24 01:30:20;;;;;;;3.83;1.70;;;;;;;10.82;82.81;100782.75;5113377;28;20475;-47
2021/05/24 01:32:48;;;;;;;4.00;2.03;;;;;;;10.85;82.85;100778.53;5113260;28;20093;-44
2021/05/24 01:35:16;;;;;;;4.30;1.63;;;;;;;10.85;82.86;100771.00;5114065;28;20063;-45
2021/05/24 01:37:43;;;;;;;4.43;2.10;;;;;;;10.86;82.82;100774.63;5113190;28;20067;-44
2021/05/24 01:40:13;;;;;;;4.22;1.77;;;;;;;10.87;82.68;100771.53;5112880;28;20069;-45
2021/05/24 01:42:40;;;;;;;5.18;1.70;;;;;;;10.88;82.56;100775.97;5113459;27;20504;-46
2021/05/24 01:45:09;;;;;;;6.03;1.90;;;;;;;10.87;82.55;100779.06;5112142;28;20048;-45
2021/05/24 01:47:37;;;;;;;4.40;1.88;;;;;;;10.90;82.43;100773.72;5113207;28;20044;-44
2021/05/24 01:50:06;;;;;;;4.60;1.90;;;;;;;10.91;82.35;100786.53;5113444;28;20171;-46
2021/05/24 01:52:33;;;;;;;6.40;1.90;;;;;;;10.90;82.62;100776.50;5112948;28;20047;-46
2021/05/24 01:55:00;;;;;;;2.88;1.60;;;;;;;10.88;82.86;100769.56;5113234;28;20108;-45
2021/05/24 01:57:28;;;;;;;5.97;1.75;;;;;;;10.88;82.94;100770.41;5113191;28;20043;-46
2021/05/24 01:59:56;;;;;;;3.40;1.80;;;;;;;10.86;83.08;100771.81;5112524;28;20069;-46
2021/05/24 02:02:24;;;;;;;5.55;1.88;;;;;;;10.87;83.01;100770.69;5113165;28;20069;-43
2021/05/24 02:04:51;;;;;;;4.85;1.70;;;;;;;10.86;83.19;100774.63;5113288;27;20097;-47
2021/05/24 02:07:19;;;;;;;5.38;1.80;;;;;;;10.85;83.45;100771.00;5112443;28;20047;-49
2021/05/24 02:09:46;;;;;;;4.28;1.70;;;;;;;10.82;83.80;100777.19;5113012;27;20130;-47
2021/05/24 02:12:13;;;;;;;5.30;1.60;;;;;;;10.80;84.08;100762.69;5112887;28;20093;-46
2021/05/24 02:14:44;;;;;;;3.83;1.80;;;;;;;10.80;83.73;100756.28;5112227;28;20051;-45
2021/05/24 02:17:11;;;;;;;3.72;1.38;;;;;;;10.78;84.26;100755.78;5113266;28;20075;-47
2021/05/24 02:19:38;;;;;;;4.22;1.60;;;;;;;10.75;84.42;100746.06;5112051;28;20460;-48
2021/05/24 02:22:06;;;;;;;3.47;1.65;;;;;;;10.76;84.51;100730.13;5112946;28;20585;-47
2021/05/24 02:24:33;;;;;;;3.40;1.30;;;;;;;10.75;84.57;100734.88;5112398;28;20043;-44
2021/05/24 02:27:00;;;;;;;4.05;1.50;;;;;;;10.77;84.79;100731.78;5111923;28;20464;-49
2021/05/24 02:29:27;;;;;;;3.47;1.40;;;;;;;10.75;84.65;100720.94;5112687;28;20100;-45
2021/05/24 02:31:56;;;;;;;3.40;1.27;;;;;;;10.76;84.66;100728.19;5112556;28;20504;-47
2021/05/24 02:34:23;;;;;;;2.92;1.38;;;;;;;10.77;84.80;100727.03;5112039;28;20048;-46
2021/05/24 02:36:51;;;;;;;3.33;1.30;;;;;;;10.77;85.06;100727.03;5112438;28;20464;-45
2021/05/24 02:39:18;;;;;;;5.30;1.50;;;;;;;10.77;85.14;100727.03;5112194;28;20052;-46
2021/05/24 02:41:45;;;;;;;4.10;1.27;;;;;;;10.77;85.20;100729.00;5112045;27;20457;-50
2021/05/24 02:44:13;;;;;;;4.65;1.63;;;;;;;10.77;85.10;100731.78;5112416;28;20119;-49
2021/05/24 02:46:41;;;;;;;5.35;1.60;;;;;;;10.77;85.39;100734.59;5112000;28;20096;-48
2021/05/24 02:49:09;;;;;;;3.47;1.70;;;;;;;10.75;85.55;100732.09;5111563;28;20096;-51
2021/05/24 02:51:37;;;;;;;4.20;1.42;;;;;;;10.74;85.85;100735.19;5112065;28;20051;-48
2021/05/24 02:54:06;;;;;;;3.70;1.40;;;;;;;10.72;86.06;100723.50;5112047;28;20484;-50
2021/05/24 02:56:35;;;;;;;3.80;1.30;;;;;;;10.69;86.32;100725.75;5110885;28;20040;-48
2021/05/24 02:59:03;;;;;;;5.78;1.70;;;;;;;10.68;86.66;100726.88;5112124;28;20036;-50
2021/05/24 03:01:32;;;;;;;3.83;1.60;;;;;;;10.67;86.54;100722.44;5112037;28;20039;-46
2021/05/24 03:04:01;;;;;;;4.50;1.42;;;;;;;10.67;86.66;100725.22;5111348;28;20085;-48
2021/05/24 03:06:29;;;;;;;4.18;1.83;;;;;;;10.66;87.15;100717.16;5108027;28;20477;-46
2021/05/24 03:08:57;;;;;;;4.75;1.95;;;;;;;10.65;87.05;100715.50;5111606;28;20052;-46
2021/05/24 03:11:24;;;;;;;5.10;2.25;;;;;;;10.64;87.35;100713.84;5111730;28;20047;-49
2021/05/24 03:13:52;;;;;;;3.53;1.92;;;;;;;10.63;87.42;100709.38;5112178;28;20055;-50
2021/05/24 03:16:20;;;;;;;3.25;1.70;;;;;;;10.63;87.58;100701.03;5110955;28;20051;-49
2021/05/24 03:18:47;;;;;;;5.10;1.83;;;;;;;10.63;87.64;100701.03;5111758;28;20138;-45
2021/05/24 03:21:15;;;;;;;6.18;2.35;;;;;;;10.61;87.93;100694.91;5111629;27;20083;-47
2021/05/24 03:23:43;;;;;;;4.72;2.13;;;;;;;10.60;88.28;100694.09;5111247;28;20050;-47
2021/05/24 03:26:10;;;;;;;4.80;1.88;;;;;;;10.61;88.24;100692.94;5111608;28;20442;-48
2021/05/24 03:28:41;;;;;;;3.70;2.20;;;;;;;10.61;88.53;100692.13;5111483;28;20043;-54
2021/05/24 03:31:09;;;;;;;5.55;2.38;;;;;;;10.57;88.75;100700.28;5111130;28;20054;-48
2021/05/24 03:33:37;;;;;;;4.40;2.10;;;;;;;10.58;88.90;100698.34;5110799;28;20043;-49
2021/05/24 03:36:05;;;;;;;5.18;2.17;;;;;;;10.56;88.97;100686.66;5111195;28;20047;-49
2021/05/24 03:38:33;;;;;;;4.97;2.03;;;;;;;10.56;89.12;100684.69;5110481;28;20105;-49
2021/05/24 03:41:02;;;;;;;5.28;1.88;;;;;;;10.53;89.32;100681.66;5109408;28;20385;-49
2021/05/24 03:43:30;;;;;;;4.10;1.90;;;;;;;10.50;89.37;100685.88;5110717;28;20432;-47
2021/05/24 03:45:57;;;;;;;4.05;2.00;;;;;;;10.51;89.39;100681.97;5109548;28;20059;-49
2021/05/24 03:48:25;;;;;;;2.65;1.52;;;;;;;10.49;89.44;100683.41;5110627;28;20097;-46
2021/05/24 03:50:52;;;;;;;4.20;2.22;;;;;;;10.49;89.73;100684.22;5111441;28;20591;-46
2021/05/24 03:53:19;;;;;;;3.92;1.73;;;;;;;10.49;89.76;100683.41;5110718;28;20096;-47
2021/05/24 03:55:47;;;;;;;5.88;2.17;;;;;;;10.49;89.78;100680.59;5111373;28;20043;-49
2021/05/24 03:58:15;;;;;;;4.85;2.00;;;;;;;10.49;89.73;100673.06;5110715;28;20492;-47
2021/05/24 04:00:42;;;;;;;3.70;2.10;;;;;;;10.50;89.79;100679.47;5111293;28;20075;-50
2021/05/24 04:03:11;;;;;;;5.05;1.83;;;;;;;10.49;89.95;100670.28;5111314;28;20096;-49
2021/05/24 04:05:39;;;;;;;6.10;2.20;;;;;;;10.48;89.99;100665.00;5110907;28;20039;-47
2021/05/24 04:08:08;;;;;;;5.80;2.30;;;;;;;10.47;90.17;100666.97;5114228;28;20116;-47
2021/05/24 04:10:38;;;;;;;6.00;2.05;;;;;;;10.47;90.20;100664.16;5115639;28;20096;-47
2021/05/24 04:13:06;;;;;;;4.47;2.00;;;;;;;10.49;90.04;100677.81;5114465;28;20071;-45
2021/05/24 04:15:34;;;;;;;4.05;1.80;;;;;;;10.49;90.00;100667.50;5115706;28;20043;-47
2021/05/24 04:18:06;;;;;;;5.60;2.83;;;;;;;10.49;90.07;100672.25;5115095;28;20047;-47
2021/05/24 04:20:33;;;;;;;6.65;2.40;;;;;;;10.47;90.44;100669.75;5114125;28;20557;-49
2021/05/24 04:23:01;;;;;;;5.30;2.60;;;;;;;10.49;90.34;100667.50;5115042;28;20052;-49
2021/05/24 04:25:28;;;;;;;3.80;2.50;;;;;;;10.52;90.35;100666.06;5114866;28;20126;-52
2021/05/24 04:27:55;;;;;;;6.38;2.65;;;;;;;10.50;90.37;100663.56;5114389;28;20523;-48
2021/05/24 04:30:23;;;;;;;5.88;2.70;;;;;;;10.50;90.58;100660.78;5115134;28;20062;-49
2021/05/24 04:32:51;;;;;;;4.90;2.45;;;;;;;10.52;90.48;100660.47;5114220;28;20108;-48
2021/05/24 04:35:18;;;;;;;4.63;2.08;;;;;;;10.53;90.50;100667.72;5114097;28;20440;-51
2021/05/24 04:37:46;;;;;;;5.15;2.40;;;;;;;10.53;90.71;100662.13;5114786;28;20055;-50
2021/05/24 04:40:14;;;;;;;5.10;2.33;;;;;;;10.54;90.54;100672.16;5114238;28;20501;-49
2021/05/24 04:42:41;;;;;;;4.97;2.35;;;;;;;10.55;90.54;100671.03;5114793;28;20096;-49
2021/05/24 04:45:09;;;;;;;6.47;2.35;;;;;;;10.55;90.46;100666.28;5114917;28;20075;-47
2021/05/24 04:47:36;;;;;;;4.35;2.15;;;;;;;10.53;90.56;100664.94;5114002;28;20086;-48
2021/05/24 04:50:06;;;;;;;4.32;1.92;;;;;;;10.52;90.35;100661.31;5114348;28;20119;-48
2021/05/24 04:52:33;;;;;;;8.02;1.88;;;;;;;10.51;90.46;100658.81;5114543;28;20055;-49
2021/05/24 04:55:01;;;;;;;3.58;1.60;;;;;;;10.47;90.21;100664.16;5113642;28;20105;-49
2021/05/24 04:57:28;;;;;;;2.90;1.50;;;;;;;10.49;90.15;100659.13;5114860;28;20043;-50
2021/05/24 04:59:56;;;;;;;3.55;1.60;;;;;;;10.52;90.27;100663.28;5114203;28;20073;-47
2021/05/24 05:02:24;;;;;;;2.13;1.40;;;;;;;10.53;90.24;100662.13;5114172;28;20036;-48
2021/05/24 05:04:51;;;;;;;4.05;1.40;;;;;;;10.51;90.03;100665.22;5114013;28;20044;-51
2021/05/24 05:07:19;;;;;;;3.78;1.58;;;;;;;10.51;89.98;100668.03;5114120;28;20048;-46
2021/05/24 05:09:47;;;;;;;4.70;1.77;;;;;;;10.48;89.99;100677.00;5112852;28;20047;-49
2021/05/24 05:12:14;;;;;;;3.35;1.55;;;;;;;10.46;89.87;100673.66;5112435;28;20455;-51
2021/05/24 05:14:42;;;;;;;3.85;1.33;;;;;;;10.47;89.81;100663.34;5113334;28;20051;-49
2021/05/24 05:17:09;;;;;;;5.15;1.25;;;;;;;10.46;89.65;100675.63;5113529;28;20105;-46
2021/05/24 05:19:36;;;;;;;2.95;1.17;;;;;;;10.46;89.70;100670.06;5113115;28;20407;-47
2021/05/24 05:22:04;;;;;;;3.25;1.52;;;;;;;10.46;89.75;100673.66;5113818;28;20048;-48
2021/05/24 05:24:32;;;;;;;3.00;1.10;;;;;;;10.49;89.67;100678.66;5113426;28;20044;-50
2021/05/24 05:26:59;;;;;;;2.88;1.20;;;;;;;10.50;89.85;100668.31;5113925;28;20050;-46
2021/05/24 05:29:27;;;;;;;4.13;1.50;;;;;;;10.49;89.78;100675.03;5113382;28;20112;-48
2021/05/24 05:31:54;;;;;;;4.60;1.17;;;;;;;10.48;89.92;100673.38;5113897;28;20123;-46
2021/05/24 05:34:21;;;;;;;3.20;1.23;;;;;;;10.49;89.88;100675.84;5113456;28;20047;-47
2021/05/24 05:36:49;;;;;;;3.95;1.63;;;;;;;10.45;90.16;100671.19;5113211;28;20031;-47
2021/05/24 05:39:16;;;;;;;3.17;1.50;;;;;;;10.44;90.52;100664.78;5113628;28;20553;-49
2021/05/24 05:41:44;;;;;;;3.97;1.67;;;;;;;10.44;90.24;100670.34;5113697;28;20051;-48
2021/05/24 05:44:12;;;;;;;4.07;1.80;;;;;;;10.45;90.54;100662.81;5113147;28;20044;-49
2021/05/24 05:46:39;;;;;;;4.05;1.73;;;;;;;10.44;90.52;100673.13;5112115;28;20052;-48
2021/05/24 05:49:07;;;;;;;4.20;1.75;;;;;;;10.44;90.62;100675.94;5113338;28;20087;-48
2021/05/24 05:51:34;;;;;;;5.55;1.70;;;;;;;10.43;90.76;100665.06;5112942;28;20039;-46
2021/05/24 05:54:01;;;;;;;3.58;1.40;;;;;;;10.45;90.67;100669.22;5113332;28;20035;-48
2021/05/24 05:56:29;;;;;;;4.10;1.75;;;;;;;10.47;90.94;100663.34;5113334;28;20047;-49
2021/05/24 05:58:58;;;;;;;2.97;1.60;;;;;;;10.47;90.76;100666.97;5109364;28;20087;-49
2021/05/24 06:01:25;;;;;;;3.88;1.50;;;;;;;10.48;90.92;100665.81;5113126;28;20120;-49
2021/05/24 06:03:52;;;;;;;3.53;1.60;;;;;;;10.52;90.95;100666.06;5113402;28;20121;-48
2021/05/24 06:06:20;;;;;;;3.70;1.35;;;;;;;10.54;91.00;100674.97;5112710;28;20043;-47
2021/05/24 06:08:47;;;;;;;3.38;1.45;;;;;;;10.52;91.16;100672.47;5112996;28;20108;-48
2021/05/24 06:11:14;;;;;;;4.30;1.88;;;;;;;10.55;91.03;100671.88;5112916;28;20043;-45
2021/05/24 06:13:42;;;;;;;7.28;1.80;;;;;;;10.55;91.11;100673.81;5112342;28;20477;-47
2021/05/24 06:16:10;;;;;;;4.43;1.67;;;;;;;10.56;91.07;100673.53;5112885;28;20090;-47
2021/05/24 06:18:39;;;;;;;3.05;1.40;;;;;;;10.57;91.13;100675.19;5112802;28;20088;-48
2021/05/24 06:21:06;;;;;;;2.90;1.40;;;;;;;10.56;91.11;100672.69;5112686;28;20043;-46
2021/05/24 06:23:34;;;;;;;3.00;1.38;;;;;;;10.54;91.08;100675.78;5112713;28;20044;-51
2021/05/24 06:26:01;;;;;;;3.88;1.30;;;;;;;10.60;91.01;100682.09;5111962;27;20487;-49
2021/05/24 06:28:29;;;;;;;5.05;1.50;;;;;;;10.58;91.27;100685.22;5111722;28;20070;-48
2021/05/24 06:30:56;;;;;;;3.55;1.30;;;;;;;10.56;90.96;100679.09;5111540;28;20051;-47
2021/05/24 06:33:24;;;;;;;2.72;1.23;;;;;;;10.55;90.92;100668.25;5111240;28;20043;-49
2021/05/24 06:35:52;;;;;;;4.45;1.33;;;;;;;10.55;90.95;100680.22;5111986;27;20126;-47
2021/05/24 06:38:19;;;;;;;3.28;1.40;;;;;;;10.52;90.95;100675.25;5111305;28;20046;-48
2021/05/24 06:40:46;;;;;;;3.13;1.10;;;;;;;10.50;91.07;100673.91;5100163;28;20059;-49
2021/05/24 06:43:14;;;;;;;2.83;1.00;;;;;;;10.49;91.19;100680.59;5111659;28;20054;-49
2021/05/24 06:45:41;;;;;;;2.97;1.00;;;;;;;10.48;91.27;100678.94;5112113;28;20040;-47
2021/05/24 06:48:08;;;;;;;2.17;1.10;;;;;;;10.46;91.33;100684.00;5111443;28;20059;-48
2021/05/24 06:50:37;;;;;;;2.08;1.02;;;;;;;10.43;91.30;100679.84;5112455;28;20109;-50
2021/05/24 06:53:04;;;;;;;4.13;1.00;;;;;;;10.40;91.33;100674.88;5112302;28;20086;-50
2021/05/24 06:55:31;;;;;;;3.67;1.45;;;;;;;10.36;91.48;100668.25;5111519;28;20112;-48
2021/05/24 06:57:59;;;;;;;2.53;1.10;;;;;;;10.34;91.39;100671.34;5110856;28;20496;-49
2021/05/24 07:00:26;;;;;;;4.22;1.08;;;;;;;10.33;91.34;100680.03;5112234;28;20075;-47
2021/05/24 07:02:54;;;;;;;2.47;1.00;;;;;;;10.33;91.44;100669.69;5111548;28;20036;-49
2021/05/24 07:05:21;;;;;;;2.80;0.93;;;;;;;10.36;91.55;100673.84;5111990;28;20067;-48
2021/05/24 07:07:49;;;;;;;4.75;1.10;;;;;;;10.32;91.60;100670.00;5111941;28;20071;-49
2021/05/24 07:10:16;;;;;;;2.53;0.98;;;;;;;10.37;91.58;100671.88;5111441;28;20043;-49
2021/05/24 07:12:44;;;;;;;3.03;1.05;;;;;;;10.33;91.36;100664.13;5108770;28;20069;-47
2021/05/24 07:15:12;;;;;;;3.95;1.17;;;;;;;10.36;91.43;100679.41;5110546;28;20036;-49
2021/05/24 07:17:39;;;;;;;4.25;1.13;;;;;;;10.34;91.80;100676.09;5111542;28;20515;-50
2021/05/24 07:20:08;;;;;;;7.47;1.20;;;;;;;10.37;91.98;100674.69;5111600;28;20046;-48
2021/05/24 07:22:36;;;;;;;4.63;1.23;;;;;;;10.40;91.82;100669.28;5111379;28;20553;-48
2021/05/24 07:25:06;;;;;;;2.97;1.15;;;;;;;10.47;91.80;100671.72;5111518;28;20047;-48
2021/05/24 07:27:34;;;;;;;3.08;1.20;;;;;;;10.47;91.65;100666.97;5111628;28;20097;-48
2021/05/24 07:30:01;;;;;;;4.13;1.13;;;;;;;10.52;91.55;100666.06;5110733;28;20047;-48
2021/05/24 07:32:28;;;;;;;4.30;1.20;;;;;;;10.56;91.94;100667.13;5100477;28;20397;-46
2021/05/24 07:34:56;;;;;;;5.18;1.40;;;;;;;10.63;91.90;100671.16;5111243;28;20455;-51
2021/05/24 07:37:24;;;;;;;3.75;1.40;;;;;;;10.59;91.70;100675.69;5110916;28;20176;-48
2021/05/24 07:39:51;;;;;;;3.83;1.33;;;;;;;10.60;91.60;100659.75;5110910;28;20550;-50
2021/05/24 07:42:19;;;;;;;2.72;1.10;;;;;;;10.63;91.61;100660.00;5110881;28;20048;-51
2021/05/24 07:44:46;;;;;;;3.72;1.30;;;;;;;10.65;91.52;100668.06;5110644;28;20051;-47
2021/05/24 07:47:14;;;;;;;5.13;1.48;;;;;;;10.64;91.51;100669.19;5110420;28;20217;-51
2021/05/24 07:49:42;;;;;;;4.00;1.30;;;;;;;10.67;91.88;100658.25;5108952;28;20441;-47
2021/05/24 07:52:09;;;;;;;3.10;1.27;;;;;;;10.69;91.70;100661.56;5108930;28;20051;-48
2021/05/24 07:54:36;;;;;;;5.45;1.70;;;;;;;10.67;91.71;100663.84;5110592;28;20051;-50
2021/05/24 07:57:04;;;;;;;4.03;1.20;;;;;;;10.69;91.80;100666.31;5110411;28;20051;-49
2021/05/24 07:59:32;;;;;;;4.60;1.60;;;;;;;10.77;91.84;100665.66;5110007;28;20048;-47
2021/05/24 08:02:02;;;;;;;3.50;1.25;;;;;;;10.82;91.59;100662.75;5110340;28;20078;-48
2021/05/24 08:04:30;;;;;;;4.10;1.40;;;;;;;10.87;91.49;100661.81;5110515;28;20048;-48
2021/05/24 08:06:57;;;;;;;2.45;1.20;;;;;;;10.87;91.34;100659.03;5111189;28;20112;-47
2021/05/24 08:09:25;;;;;;;4.32;1.50;;;;;;;10.95;91.32;100656.38;5111223;28;20488;-49
2021/05/24 08:11:52;;;;;;;3.58;1.45;;;;;;;11.02;91.34;100669.94;5110539;28;20089;-48
2021/05/24 08:14:20;;;;;;;3.60;1.30;;;;;;;11.01;90.94;100657.09;5110997;28;20096;-48
2021/05/24 08:16:49;;;;;;;3.13;1.38;;;;;;;11.03;90.84;100649.25;5110911;28;20044;-49
2021/05/24 08:19:17;;;;;;;3.20;1.02;;;;;;;11.08;90.74;100651.94;5110933;28;20511;-49
2021/05/24 08:21:46;;;;;;;3.08;1.30;;;;;;;11.14;90.81;100661.06;5109511;28;20039;-46
2021/05/24 08:24:14;;;;;;;2.60;1.40;;;;;;;11.13;90.43;100659.41;5111093;28;20051;-48
2021/05/24 08:26:43;;;;;;;3.20;1.30;;;;;;;11.21;90.52;100650.31;5110213;28;20047;-49
2021/05/24 08:29:11;;;;;;;3.38;1.23;;;;;;;11.28;90.27;100656.31;5111161;28;20089;-49
2021/05/24 08:31:40;;;;;;;3.50;1.65;;;;;;;11.28;90.06;100648.78;5110453;28;20063;-47
2021/05/24 08:34:09;;;;;;;3.95;1.42;;;;;;;11.33;89.80;100653.44;5107201;28;20480;-48
2021/05/24 08:36:37;;;;;;;4.20;1.48;;;;;;;11.38;90.02;100659.75;5110883;28;20551;-46
2021/05/24 08:39:05;;;;;;;3.40;1.38;;;;;;;11.42;89.91;100659.13;5110590;28;20036;-49
2021/05/24 08:41:39;;;;;;;5.18;1.50;;;;;;;11.47;89.61;100659.84;5109174;28;20579;-50
2021/05/24 08:44:07;;;;;;;3.75;1.60;;;;;;;11.54;90.00;100651.88;5110603;28;20074;-50
2021/05/24 08:46:35;;;;;;;3.70;1.40;;;;;;;11.56;89.66;100659.97;5110182;28;20044;-46
2021/05/24 08:49:04;;;;;;;4.22;1.40;;;;;;;11.53;89.46;100666.16;5110735;28;20109;-45
2021/05/24 08:51:32;;;;;;;3.45;1.25;;;;;;;11.51;88.96;100658.09;5110817;28;20071;-50
2021/05/24 08:53:59;;;;;;;2.88;1.38;;;;;;;11.51;89.17;100662.84;5111103;28;20454;-47
2021/05/24 08:56:27;;;;;;;4.55;1.45;;;;;;;11.53;89.19;100664.22;5113941;28;20109;-48
2021/05/24 08:58:58;;;;;;;3.65;1.73;;;;;;;11.56;89.24;100663.59;5114438;28;20051;-46
2021/05/24 09:01:25;;;;;;;2.38;1.27;;;;;;;11.55;89.10;100663.91;5113569;28;20047;-47
2021/05/24 09:03:58;;;;;;;3.63;1.67;;;;;;;11.52;89.19;100668.13;5114305;28;20074;-45
2021/05/24 09:06:36;;;;;;;3.08;1.17;;;;;;;11.54;89.10;100665.88;5114328;28;20051;-47
2021/05/24 09:09:14;;;;;;;2.83;1.45;;;;;;;11.50;88.73;100667.63;5104741;28;20435;-47
2021/05/24 09:11:42;;;;;;;2.60;1.40;;;;;;;11.49;88.53;100673.50;5112984;28;20461;-47
2021/05/24 09:14:18;;;;;;;3.95;1.75;;;;;;;11.47;88.73;100667.41;5104921;28;20052;-48
2021/05/24 09:16:54;;;;;;;3.72;1.33;;;;;;;11.46;88.52;100663.78;5113445;28;20044;-47
2021/05/24 09:19:22;;;;;;;3.28;1.20;;;;;;;11.50;88.60;100672.38;5104579;28;20063;-48
2021/05/24 09:21:52;;;;;;;3.85;1.33;;;;;;;11.51;88.57;100676.84;5113410;28;20089;-49
2021/05/24 09:24:24;;;;;;;2.22;1.17;;;;;;;11.48;88.44;100667.09;5113855;28;20078;-50
2021/05/24 09:26:52;;;;;;;3.15;1.30;;;;;;;11.47;88.57;100673.00;5113901;28;20043;-47
2021/05/24 09:29:23;;;;;;;3.83;1.42;;;;;;;11.49;88.76;100679.09;5112985;28;20067;-48
2021/05/24 09:32:10;;;;;;;3.42;1.60;;;;;;;11.51;88.53;100677.66;5113697;28;20048;-47
2021/05/24 09:34:39;;;;;;;4.13;1.67;;;;;;;11.47;88.66;100667.41;5111969;28;20043;-46
2021/05/24 09:37:07;;;;;;;4.13;1.60;;;;;;;11.46;88.71;100669.38;5113296;28;20092;-48
2021/05/24 09:39:36;;;;;;;3.58;1.40;;;;;;;11.51;88.64;100660.06;5109950;28;20039;-48
2021/05/24 09:42:08;;;;;;;2.80;1.30;;;;;;;11.51;88.51;100671.25;5113671;28;20053;-48
2021/05/24 09:44:44;;;;;;;4.25;1.80;;;;;;;11.59;88.80;100671.31;5111872;28;20070;-49
2021/05/24 09:47:12;;;;;;;4.18;1.90;;;;;;;11.60;88.46;100674.94;5113562;28;20075;-48
2021/05/24 09:49:40;;;;;;;4.07;1.73;;;;;;;11.66;88.60;100668.13;5113024;28;20450;-50
2021/05/24 09:52:08;;;;;;;3.63;1.70;;;;;;;11.70;88.17;100663.56;5113376;28;20054;-49
2021/05/24 09:54:38;;;;;;;3.78;1.42;;;;;;;11.71;88.19;100660.47;5112841;28;20075;-49
2021/05/24 09:57:10;;;;;;;2.05;1.27;;;;;;;11.85;88.39;100668.88;5112924;28;20109;-51
2021/05/24 09:59:38;;;;;;;3.22;1.20;;;;;;;11.93;88.25;100673.75;5111622;28;20055;-50
2021/05/24 10:02:07;;;;;;;3.30;1.20;;;;;;;12.01;87.58;100672.16;5113097;28;20074;-48
2021/05/24 10:04:36;;;;;;;2.70;1.55;;;;;;;12.07;87.50;100677.34;5111831;28;20044;-46
2021/05/24 10:07:06;;;;;;;3.90;1.30;;;;;;;12.11;87.04;100680.34;5112052;28;20675;-48
2021/05/24 10:09:36;;;;;;;3.97;1.55;;;;;;;12.08;86.24;100673.38;5112679;28;20074;-50
2021/05/24 10:12:05;;;;;;;4.78;1.50;;;;;;;12.04;85.65;100666.75;5112192;28;20043;-49
2021/05/24 10:14:33;;;;;;;2.85;1.35;;;;;;;12.03;85.84;100661.47;5112846;28;20043;-48
2021/05/24 10:17:02;;;;;;;3.72;1.58;;;;;;;12.01;85.46;100664.59;5112515;28;20081;-46
2021/05/24 10:19:31;;;;;;;3.05;1.30;;;;;;;12.04;85.56;100668.72;5112102;28;20097;-46
2021/05/24 10:21:58;;;;;;;2.97;1.50;;;;;;;12.06;85.51;100677.63;5112332;28;20078;-49
2021/05/24 10:24:26;;;;;;;4.57;1.30;;;;;;;12.06;85.20;100667.28;5112769;28;20484;-46
2021/05/24 10:26:57;;;;;;;3.40;1.50;;;;;;;12.05;84.67;100681.56;5112098;28;20660;-47
2021/05/24 10:29:25;;;;;;;5.47;1.52;;;;;;;12.01;84.07;100667.38;5112257;28;20040;-49
2021/05/24 10:31:52;;;;;;;4.97;1.70;;;;;;;12.05;84.44;100670.38;5112070;28;20235;-47
2021/05/24 10:34:21;;;;;;;4.60;1.40;;;;;;;12.01;83.81;100664.59;5112122;28;20122;-47
2021/05/24 10:37:05;;;;;;;3.33;1.70;;;;;;;12.02;83.01;100663.44;5112348;28;20054;-49
2021/05/24 10:39:45;;;;;;;3.50;1.60;;;;;;;12.07;83.12;100663.34;5111785;28;20501;-52
2021/05/24 10:42:14;;;;;;;5.65;2.00;;;;;;;12.11;83.38;100662.72;5104172;28;20039;-48
2021/05/24 10:44:44;;;;;;;3.83;1.80;;;;;;;12.12;82.88;100661.56;5111982;28;20047;-48
2021/05/24 10:47:16;;;;;;;4.00;1.80;;;;;;;12.12;82.75;100658.78;5111710;28;20124;-49
2021/05/24 10:50:00;;;;;;;3.10;1.63;;;;;;;12.14;82.53;100664.91;5111992;28;20475;-48
2021/05/24 10:52:32;;;;;;;5.15;2.22;;;;;;;12.15;82.25;100655.38;5103487;28;20039;-49
2021/05/24 10:55:02;;;;;;;3.65;1.58;;;;;;;12.21;82.04;100652.09;5111540;28;20039;-51
2021/05/24 10:57:31;;;;;;;3.50;1.80;;;;;;;12.26;81.67;100648.38;5111879;28;20039;-47
2021/05/24 11:00:13;;;;;;;3.70;1.75;;;;;;;12.30;81.40;100653.03;5111633;28;20096;-51
2021/05/24 11:02:41;;;;;;;3.83;1.95;;;;;;;12.32;81.46;100659.13;5111856;28;20399;-46
2021/05/24 11:05:26;;;;;;;3.05;1.90;;;;;;;12.36;81.52;100659.34;5111910;28;20537;-48
2021/05/24 11:07:59;;;;;;;3.35;2.25;;;;;;;12.33;81.74;100655.19;5111276;28;20048;-49
2021/05/24 11:10:33;;;;;;;4.10;2.00;;;;;;;12.28;81.60;100666.50;5111928;28;20059;-49
2021/05/24 11:13:25;;;;;;;4.45;1.73;;;;;;;12.29;81.83;100650.53;5111771;28;20089;-49
2021/05/24 11:15:54;;;;;;;4.20;1.83;;;;;;;12.30;81.98;100660.59;5096352;28;20047;-47
2021/05/24 11:18:23;;;;;;;3.78;2.15;;;;;;;12.35;82.38;100663.28;5111302;28;20822;-50
2021/05/24 11:20:55;;;;;;;4.03;2.28;;;;;;;12.40;82.23;100668.72;5111731;28;20100;-48
2021/05/24 11:23:36;;;;;;;2.70;1.65;;;;;;;12.36;81.57;100660.16;5111035;28;20096;-48
2021/05/24 11:26:30;;;;;;;4.22;2.03;;;;;;;12.38;81.85;100663.47;5111698;28;20070;-48
2021/05/24 11:29:03;;;;;;;3.60;2.03;;;;;;;12.40;82.07;100672.34;5103158;28;20048;-49
2021/05/24 11:31:41;;;;;;;;;;;;;;;12.30;81.59;100669.00;5110835;28;20047;-52